createdAt,value
2022-08-04T00:00:47.591Z,100.00
2022-08-04T00:03:22.875Z,100.00
2022-08-04T00:05:59.075Z,100.00
2022-08-04T00:08:47.307Z,100.00
2022-08-04T00:11:19.127Z,100.00
2022-08-04T00:14:00.430Z,100.00
2022-08-04T00:16:38.377Z,100.00
2022-08-04T00:19:13.187Z,100.00
2022-08-04T00:21:46.039Z,100.00
2022-08-04T00:24:15.913Z,100.00
2022-08-04T00:26:46.294Z,100.00
2022-08-04T00:29:17.385Z,100.00
2022-08-04T00:31:54.784Z,100.00
2022-08-04T00:34:28.539Z,100.00
2022-08-04T00:36:59.795Z,100.00
2022-08-04T00:39:29.957Z,100.00
2022-08-04T00:42:21.198Z,100.00
2022-08-04T00:45:01.570Z,100.00
2022-08-04T00:47:44.999Z,100.00
2022-08-04T00:50:22.132Z,100.00
2022-08-04T00:53:05.126Z,100.00
2022-08-04T00:55:56.817Z,100.00
2022-08-04T00:58:32.830Z,100.00
2022-08-04T01:01:04.778Z,100.00
2022-08-04T01:03:50.432Z,100.00
2022-08-04T01:06:38.658Z,100.00
2022-08-04T01:09:30.042Z,100.00
2022-08-04T01:12:24.788Z,100.00
2022-08-04T01:15:05.707Z,100.00
2022-08-04T01:17:48.941Z,100.00
2022-08-04T01:20:24.522Z,100.00
2022-08-04T01:23:26.283Z,100.00
2022-08-04T01:26:43.881Z,100.00
2022-08-04T01:29:15.884Z,100.00
2022-08-04T01:31:53.863Z,100.00
2022-08-04T01:34:25.202Z,100.00
2022-08-04T01:37:02.257Z,100.00
2022-08-04T01:39:43.527Z,100.00
2022-08-04T01:42:32.028Z,100.00
2022-08-04T01:45:07.183Z,100.00
2022-08-04T01:47:38.982Z,100.00
2022-08-04T01:50:10.255Z,100.00
2022-08-04T01:52:41.700Z,100.00
2022-08-04T01:55:12.966Z,100.00
2022-08-04T01:57:46.276Z,100.00
2022-08-04T02:00:19.982Z,100.00
2022-08-04T02:02:49.889Z,100.00
2022-08-04T02:05:21.689Z,100.00
2022-08-04T02:08:05.249Z,100.00
2022-08-04T02:10:49.842Z,100.00
2022-08-04T02:13:25.883Z,100.00
2022-08-04T02:16:05.143Z,100.00
2022-08-04T02:18:36.429Z,100.00
2022-08-04T02:21:06.609Z,100.00
2022-08-04T02:23:39.605Z,100.00
2022-08-04T02:26:19.373Z,100.00
2022-08-04T02:28:57.257Z,100.00
2022-08-04T02:31:33.802Z,100.00
2022-08-04T02:34:09.726Z,100.00
2022-08-04T02:36:40.909Z,100.00
2022-08-04T02:39:12.096Z,100.00
2022-08-04T02:41:42.769Z,100.00
2022-08-04T02:44:12.970Z,100.00
2022-08-04T02:46:45.353Z,100.00
2022-08-04T02:49:14.838Z,100.00
2022-08-04T02:51:46.535Z,100.00
2022-08-04T02:54:22.397Z,100.00
2022-08-04T02:57:07.972Z,100.00
2022-08-04T02:59:48.090Z,100.00
2022-08-04T03:02:27.643Z,100.00
2022-08-04T03:05:00.918Z,100.00
2022-08-04T03:08:07.476Z,100.00
2022-08-04T03:11:00.357Z,100.00
2022-08-04T03:14:12.060Z,100.00
2022-08-04T03:17:03.914Z,100.00
2022-08-04T03:20:14.105Z,100.00
2022-08-04T03:23:12.619Z,100.00
2022-08-04T03:26:25.721Z,100.00
2022-08-04T03:29:36.083Z,100.00
2022-08-04T03:32:37.764Z,100.00
2022-08-04T03:35:22.523Z,100.00
2022-08-04T03:38:14.894Z,100.00
2022-08-04T03:41:00.409Z,100.00
2022-08-04T03:43:57.888Z,100.00
2022-08-04T03:46:58.133Z,100.00
2022-08-04T03:49:50.643Z,100.00
2022-08-04T03:52:57.045Z,100.00
2022-08-04T03:55:44.407Z,100.00
2022-08-04T03:58:43.206Z,100.00
2022-08-04T04:01:20.568Z,100.00
2022-08-04T04:04:18.293Z,100.00
2022-08-04T04:07:14.320Z,100.00
2022-08-04T04:10:10.507Z,100.00
2022-08-04T04:12:59.595Z,100.00
2022-08-04T04:15:39.639Z,100.00
2022-08-04T04:18:34.397Z,100.00
2022-08-04T04:21:30.502Z,100.00
2022-08-04T04:24:22.727Z,100.00
2022-08-04T04:27:00.169Z,100.00
2022-08-04T04:29:49.525Z,100.00
2022-08-04T04:32:26.782Z,100.00
2022-08-04T04:35:11.125Z,100.00
2022-08-04T04:38:12.854Z,100.00
2022-08-04T04:40:52.186Z,100.00
2022-08-04T04:43:52.593Z,100.00
2022-08-04T04:46:31.126Z,100.00
2022-08-04T04:49:06.432Z,100.00
2022-08-04T04:51:40.761Z,100.00
2022-08-04T04:54:17.067Z,100.00
2022-08-04T04:56:50.037Z,100.00
2022-08-04T04:59:25.435Z,100.00
2022-08-04T05:02:17.922Z,100.00
2022-08-04T05:05:06.365Z,100.00
2022-08-04T05:08:43.471Z,100.00
2022-08-04T05:11:14.250Z,100.00
2022-08-04T05:14:36.107Z,100.00
2022-08-04T05:16:43.470Z,100.00
2022-08-04T05:19:22.826Z,100.00
2022-08-04T05:21:55.774Z,100.00
2022-08-04T05:24:26.834Z,100.00
2022-08-04T05:26:59.012Z,100.00
2022-08-04T05:29:32.031Z,100.00
2022-08-04T05:32:06.807Z,100.00
2022-08-04T05:34:42.641Z,100.00
2022-08-04T05:37:13.963Z,100.00
2022-08-04T05:39:53.306Z,100.00
2022-08-04T05:42:23.529Z,100.00
2022-08-04T05:44:53.281Z,100.00
2022-08-04T05:47:25.476Z,100.00
2022-08-04T05:50:01.443Z,100.00
2022-08-04T05:52:33.727Z,100.00
2022-08-04T05:55:03.744Z,100.00
2022-08-04T05:57:33.647Z,100.00
2022-08-04T06:00:19.734Z,100.00
2022-08-04T06:02:59.048Z,100.00
2022-08-04T06:05:28.904Z,100.00
2022-08-04T06:08:12.469Z,100.00
2022-08-04T06:10:43.794Z,100.00
2022-08-04T06:13:48.455Z,100.00
2022-08-04T06:16:05.192Z,100.00
2022-08-04T06:19:59.025Z,100.00
2022-08-04T06:21:31.179Z,100.00
2022-08-04T06:24:04.540Z,100.00
2022-08-04T06:26:36.816Z,100.00
2022-08-04T06:29:11.128Z,100.00
2022-08-04T06:32:28.476Z,100.00
2022-08-04T06:34:39.123Z,100.00
2022-08-04T06:37:09.528Z,100.00
2022-08-04T06:39:39.145Z,100.00
2022-08-04T06:42:21.908Z,100.00
2022-08-04T06:44:54.842Z,100.00
2022-08-04T06:47:24.906Z,100.00
2022-08-04T06:51:30.428Z,100.00
2022-08-04T06:52:48.774Z,100.00
2022-08-04T06:55:18.347Z,100.00
2022-08-04T06:57:48.578Z,100.00
2022-08-04T07:00:20.238Z,100.00
2022-08-04T07:02:53.543Z,100.00
2022-08-04T07:05:26.179Z,100.00
2022-08-04T07:07:57.375Z,100.00
2022-08-04T07:10:28.461Z,100.00
2022-08-04T07:12:58.984Z,100.00
2022-08-04T07:15:29.063Z,100.00
2022-08-04T07:18:01.963Z,100.00
2022-08-04T07:20:36.831Z,100.00
2022-08-04T07:23:07.283Z,100.00
2022-08-04T07:25:59.692Z,100.00
2022-08-04T07:28:28.006Z,100.00
2022-08-04T07:30:59.424Z,100.00
2022-08-04T07:33:29.345Z,100.00
2022-08-04T07:36:09.203Z,100.00
2022-08-04T07:38:46.434Z,100.00
2022-08-04T07:41:39.312Z,100.00
2022-08-04T07:44:10.539Z,100.00
2022-08-04T07:46:40.424Z,100.00
2022-08-04T07:49:10.384Z,100.00
2022-08-04T07:51:42.801Z,100.00
2022-08-04T07:54:12.514Z,100.00
2022-08-04T07:56:43.750Z,100.00
2022-08-04T07:59:13.226Z,100.00
2022-08-04T08:01:43.342Z,100.00
2022-08-04T08:04:13.877Z,100.00
2022-08-04T08:06:46.205Z,100.00
2022-08-04T08:09:18.081Z,100.00
2022-08-04T08:12:38.167Z,100.00
2022-08-04T08:14:39.495Z,100.00
2022-08-04T08:17:10.295Z,100.00
2022-08-04T08:19:39.902Z,100.00
2022-08-04T08:22:14.250Z,100.00
2022-08-04T08:24:43.824Z,100.00
2022-08-04T08:27:13.521Z,100.00
2022-08-04T08:29:43.226Z,100.00
2022-08-04T08:32:15.359Z,100.00
2022-08-04T08:34:45.703Z,100.00
2022-08-04T08:37:21.802Z,100.00
2022-08-04T08:39:57.069Z,100.00
2022-08-04T08:42:54.561Z,100.00
2022-08-04T08:45:50.154Z,100.00
2022-08-04T08:48:41.808Z,100.00
2022-08-04T08:51:53.647Z,100.00
2022-08-04T08:54:47.319Z,100.00
2022-08-04T08:57:25.299Z,100.00
2022-08-04T09:00:05.424Z,100.00
2022-08-04T09:03:09.295Z,100.00
2022-08-04T09:06:01.426Z,100.00
2022-08-04T09:08:47.117Z,100.00
2022-08-04T09:11:23.331Z,100.00
2022-08-04T09:13:57.915Z,100.00
2022-08-04T09:16:32.216Z,100.00
2022-08-04T09:19:07.098Z,100.00
2022-08-04T09:21:40.412Z,100.00
2022-08-04T09:24:35.188Z,100.00
2022-08-04T09:27:11.235Z,100.00
2022-08-04T09:29:49.169Z,100.00
2022-08-04T09:32:26.543Z,100.00
2022-08-04T09:35:06.097Z,100.00
2022-08-04T09:37:46.692Z,100.00
2022-08-04T09:40:29.329Z,100.00
2022-08-04T09:43:14.824Z,100.00
2022-08-04T09:45:51.643Z,100.00
2022-08-04T09:48:28.097Z,100.00
2022-08-04T09:51:01.822Z,100.00
2022-08-04T09:53:43.382Z,100.00
2022-08-04T09:56:17.752Z,100.00
2022-08-04T09:58:56.906Z,100.00
2022-08-04T10:01:28.158Z,100.00
2022-08-04T10:04:02.014Z,100.00
2022-08-04T10:06:51.914Z,100.00
2022-08-04T10:09:33.895Z,100.00
2022-08-04T10:12:12.027Z,100.00
2022-08-04T10:14:52.204Z,100.00
2022-08-04T10:17:51.904Z,100.00
2022-08-04T10:20:44.446Z,100.00
2022-08-04T10:23:21.531Z,100.00
2022-08-04T10:26:08.250Z,100.00
2022-08-04T10:28:46.972Z,100.00
2022-08-04T10:31:23.962Z,100.00
2022-08-04T10:33:57.613Z,100.00
2022-08-04T10:36:31.444Z,100.00
2022-08-04T10:39:06.536Z,100.00
2022-08-04T10:41:39.001Z,100.00
2022-08-04T10:44:19.116Z,100.00
2022-08-04T10:46:55.931Z,100.00
2022-08-04T10:49:27.039Z,100.00
2022-08-04T10:52:04.669Z,100.00
2022-08-04T10:54:45.250Z,100.00
2022-08-04T10:57:18.401Z,100.00
2022-08-04T11:00:00.580Z,100.00
2022-08-04T11:02:40.773Z,100.00
2022-08-04T11:05:18.757Z,100.00
2022-08-04T11:07:52.051Z,100.00
2022-08-04T11:10:25.467Z,100.00
2022-08-04T11:12:58.921Z,100.00
2022-08-04T11:15:34.481Z,100.00
2022-08-04T11:18:16.150Z,100.00
2022-08-04T11:20:52.415Z,93.04
2022-08-04T11:23:27.289Z,92.39
2022-08-04T11:26:01.678Z,100.00
2022-08-04T11:28:40.874Z,94.24
2022-08-04T11:31:14.503Z,86.20
2022-08-04T11:33:50.242Z,91.57
2022-08-04T11:36:25.820Z,100.00
2022-08-04T11:38:59.755Z,89.74
2022-08-04T11:41:40.768Z,94.68
2022-08-04T11:44:12.830Z,86.21
2022-08-04T11:46:46.654Z,83.98
2022-08-04T11:49:57.562Z,93.38
2022-08-04T11:52:23.682Z,87.42
2022-08-04T11:54:54.638Z,100.00
2022-08-04T11:57:35.320Z,84.32
2022-08-04T12:00:10.061Z,81.76
2022-08-04T12:03:07.454Z,86.62
2022-08-04T12:05:47.139Z,80.66
2022-08-04T12:08:32.522Z,83.44
2022-08-04T12:11:18.951Z,82.27
2022-08-04T12:13:52.161Z,79.94
2022-08-04T12:16:27.841Z,80.74
2022-08-04T12:19:01.645Z,75.44
2022-08-04T12:21:38.344Z,74.11
2022-08-04T12:24:18.394Z,71.92
2022-08-04T12:26:53.249Z,72.20
2022-08-04T12:29:25.503Z,66.92
2022-08-04T12:31:58.251Z,67.51
2022-08-04T12:34:33.993Z,68.33
2022-08-04T12:37:20.506Z,70.35
2022-08-04T12:40:28.533Z,67.63
2022-08-04T12:42:59.373Z,65.87
2022-08-04T12:45:30.048Z,64.84
2022-08-04T12:48:01.113Z,60.52
2022-08-04T12:50:31.079Z,64.49
2022-08-04T12:53:04.020Z,61.51
2022-08-04T12:55:37.157Z,59.17
2022-08-04T12:58:15.009Z,57.27
2022-08-04T13:00:47.666Z,55.93
2022-08-04T13:03:19.707Z,55.00
2022-08-04T13:05:49.780Z,55.02
2022-08-04T13:08:23.290Z,56.42
2022-08-04T13:10:55.758Z,55.17
2022-08-04T13:13:28.687Z,55.92
2022-08-04T13:15:59.984Z,56.58
2022-08-04T13:18:32.126Z,58.61
2022-08-04T13:21:20.414Z,60.62
2022-08-04T13:24:10.654Z,61.07
2022-08-04T13:26:54.427Z,63.33
2022-08-04T13:30:00.411Z,60.15
2022-08-04T13:32:20.469Z,60.46
2022-08-04T13:34:52.595Z,61.11
2022-08-04T13:37:25.345Z,61.34
2022-08-04T13:39:58.641Z,58.68
2022-08-04T13:42:30.076Z,56.73
2022-08-04T13:45:02.901Z,56.56
2022-08-04T13:47:34.959Z,55.25
2022-08-04T13:50:19.474Z,56.23
2022-08-04T13:52:49.773Z,55.72
2022-08-04T13:55:27.152Z,57.28
2022-08-04T13:58:00.480Z,55.92
2022-08-04T14:00:42.185Z,52.22
2022-08-04T14:03:23.509Z,57.84
2022-08-04T14:06:18.879Z,55.02
2022-08-04T14:08:57.105Z,55.41
2022-08-04T14:12:09.751Z,57.38
2022-08-04T14:14:30.020Z,59.32
2022-08-04T14:17:19.971Z,60.23
2022-08-04T14:19:58.908Z,57.89
2022-08-04T14:22:34.607Z,57.15
2022-08-04T14:25:07.425Z,59.26
2022-08-04T14:27:47.613Z,63.04
2022-08-04T14:30:25.057Z,67.50
2022-08-04T14:34:02.154Z,80.45
2022-08-04T14:36:01.640Z,95.62
2022-08-04T14:38:56.429Z,97.99
2022-08-04T14:41:29.560Z,100.00
2022-08-04T14:44:03.729Z,100.00
2022-08-04T14:46:36.629Z,100.00
2022-08-04T14:49:11.987Z,100.00
2022-08-04T14:51:44.754Z,100.00
2022-08-04T14:54:18.992Z,100.00
2022-08-04T14:56:55.698Z,100.00
2022-08-04T14:59:28.070Z,100.00
2022-08-04T15:02:00.039Z,100.00
2022-08-04T15:04:32.332Z,100.00
2022-08-04T15:07:04.494Z,100.00
2022-08-04T15:09:35.118Z,100.00
2022-08-04T15:12:04.939Z,100.00
2022-08-04T15:14:38.467Z,100.00
2022-08-04T15:17:29.433Z,100.00
2022-08-04T15:19:59.544Z,100.00
2022-08-04T15:22:29.292Z,100.00
2022-08-04T15:24:58.866Z,100.00
2022-08-04T15:27:31.978Z,100.00
2022-08-04T15:30:07.157Z,100.00
2022-08-04T15:32:38.681Z,100.00
2022-08-04T15:35:12.733Z,100.00
2022-08-04T15:37:47.898Z,100.00
2022-08-04T15:40:27.051Z,100.00
2022-08-04T15:43:10.744Z,100.00
2022-08-04T15:46:37.201Z,100.00
2022-08-04T15:48:43.876Z,100.00
2022-08-04T15:51:17.007Z,100.00
2022-08-04T15:54:24.684Z,100.00
2022-08-04T15:57:02.553Z,100.00
2022-08-04T16:00:04.113Z,100.00
2022-08-04T16:02:46.918Z,100.00
2022-08-04T16:05:34.474Z,100.00
2022-08-04T16:08:12.218Z,100.00
2022-08-04T16:10:42.718Z,100.00
2022-08-04T16:13:15.541Z,100.00
2022-08-04T16:15:47.280Z,100.00
2022-08-04T16:18:26.421Z,100.00
2022-08-04T16:20:58.130Z,100.00
2022-08-04T16:23:55.101Z,100.00
2022-08-04T16:26:54.546Z,100.00
2022-08-04T16:29:43.933Z,100.00
2022-08-04T16:32:22.114Z,100.00
2022-08-04T16:34:59.903Z,100.00
2022-08-04T16:37:34.919Z,100.00
2022-08-04T16:40:38.082Z,100.00
2022-08-04T16:43:10.817Z,100.00
2022-08-04T16:45:48.578Z,100.00
2022-08-04T16:48:18.831Z,100.00
2022-08-04T16:51:04.707Z,100.00
2022-08-04T16:53:52.213Z,100.00
2022-08-04T16:56:33.493Z,100.00
2022-08-04T16:59:08.590Z,100.00
2022-08-04T17:01:38.866Z,100.00
2022-08-04T17:04:08.913Z,100.00
2022-08-04T17:06:43.031Z,100.00
2022-08-04T17:09:15.172Z,100.00
2022-08-04T17:11:45.664Z,100.00
2022-08-04T17:14:16.036Z,100.00
2022-08-04T17:16:46.135Z,100.00
2022-08-04T17:19:24.141Z,100.00
2022-08-04T17:22:04.680Z,100.00
2022-08-04T17:24:36.483Z,100.00
2022-08-04T17:28:20.457Z,100.00
2022-08-04T17:29:56.412Z,100.00
2022-08-04T17:32:26.657Z,100.00
2022-08-04T17:34:58.515Z,100.00
2022-08-04T17:37:39.154Z,100.00
2022-08-04T17:44:02.979Z,100.00
2022-08-04T17:46:29.288Z,100.00
2022-08-04T17:49:06.457Z,100.00
2022-08-04T17:52:02.916Z,100.00
2022-08-04T17:54:37.122Z,100.00
2022-08-04T17:57:19.443Z,100.00
2022-08-04T17:59:55.981Z,100.00
2022-08-04T18:02:33.115Z,100.00
2022-08-04T18:05:07.314Z,100.00
2022-08-04T18:08:38.569Z,100.00
2022-08-04T18:10:51.828Z,100.00
2022-08-04T18:13:24.571Z,100.00
2022-08-04T18:16:03.449Z,100.00
2022-08-04T18:18:33.202Z,100.00
2022-08-04T18:21:05.026Z,100.00
2022-08-04T18:23:34.666Z,100.00
2022-08-04T18:26:24.085Z,100.00
2022-08-04T18:28:53.791Z,100.00
2022-08-04T18:31:23.299Z,100.00
2022-08-04T18:33:57.161Z,100.00
2022-08-04T18:36:33.378Z,100.00
2022-08-04T18:39:12.591Z,100.00
2022-08-04T18:42:03.947Z,100.00
2022-08-04T18:44:52.033Z,100.00
2022-08-04T18:47:23.478Z,100.00
2022-08-04T18:50:59.842Z,100.00
2022-08-04T18:52:45.717Z,100.00
2022-08-04T18:55:55.457Z,100.00
2022-08-04T18:58:12.764Z,100.00
2022-08-04T19:00:46.122Z,100.00
2022-08-04T19:03:21.922Z,100.00
2022-08-04T19:05:53.193Z,100.00
2022-08-04T19:08:33.304Z,100.00
2022-08-04T19:11:35.232Z,100.00
2022-08-04T19:13:58.888Z,100.00
2022-08-04T19:16:29.331Z,100.00
2022-08-04T19:19:00.449Z,100.00
2022-08-04T19:22:00.349Z,100.00
2022-08-04T19:24:31.868Z,100.00
2022-08-04T19:27:06.773Z,100.00
2022-08-04T19:29:43.224Z,100.00
2022-08-04T19:32:15.812Z,100.00
2022-08-04T19:34:47.620Z,100.00
2022-08-04T19:37:57.207Z,100.00
2022-08-04T19:40:10.225Z,100.00
2022-08-04T19:42:40.392Z,100.00
2022-08-04T19:45:15.463Z,100.00
2022-08-04T19:48:21.578Z,100.00
2022-08-04T19:50:35.932Z,100.00
2022-08-04T19:53:19.450Z,100.00
2022-08-04T19:55:50.385Z,100.00
2022-08-04T19:58:25.862Z,100.00
2022-08-04T20:00:58.449Z,100.00
2022-08-04T20:04:09.322Z,100.00
2022-08-04T20:06:17.518Z,100.00
2022-08-04T20:08:48.399Z,100.00
2022-08-04T20:11:20.625Z,100.00
2022-08-04T20:13:54.285Z,100.00
2022-08-04T20:16:29.341Z,100.00
2022-08-04T20:19:03.738Z,100.00
2022-08-04T20:21:53.780Z,100.00
2022-08-04T20:24:40.530Z,100.00
2022-08-04T20:27:15.389Z,100.00
2022-08-04T20:29:48.780Z,100.00
2022-08-04T20:32:22.651Z,100.00
2022-08-04T20:34:52.761Z,100.00
2022-08-04T20:37:23.277Z,100.00
2022-08-04T20:39:57.109Z,100.00
2022-08-04T20:42:34.039Z,100.00
2022-08-04T20:45:04.374Z,100.00
2022-08-04T20:47:36.974Z,100.00
2022-08-04T20:50:10.582Z,100.00
2022-08-04T20:52:43.105Z,100.00
2022-08-04T20:55:13.460Z,100.00
2022-08-04T20:57:48.542Z,100.00
2022-08-04T21:00:29.985Z,100.00
2022-08-04T21:03:02.507Z,100.00
2022-08-04T21:05:32.354Z,100.00
2022-08-04T21:08:02.121Z,100.00
2022-08-04T21:10:31.946Z,100.00
2022-08-04T21:13:01.479Z,100.00
2022-08-04T21:15:58.094Z,100.00
2022-08-04T21:18:29.263Z,100.00
2022-08-04T21:20:59.071Z,100.00
2022-08-04T21:23:30.149Z,100.00
2022-08-04T21:26:04.466Z,100.00
2022-08-04T21:28:34.666Z,100.00
2022-08-04T21:31:11.121Z,100.00
2022-08-04T21:33:53.848Z,100.00
2022-08-04T21:36:27.490Z,100.00
2022-08-04T21:38:57.268Z,100.00
2022-08-04T21:41:27.377Z,100.00
2022-08-04T21:43:58.901Z,100.00
2022-08-04T21:46:30.324Z,100.00
2022-08-04T21:49:03.891Z,100.00
2022-08-04T21:51:58.025Z,100.00
2022-08-04T21:54:29.091Z,100.00
2022-08-04T21:56:58.683Z,100.00
2022-08-04T21:59:33.581Z,100.00
2022-08-04T22:02:14.950Z,100.00
2022-08-04T22:04:48.520Z,100.00
2022-08-04T22:07:18.639Z,100.00
2022-08-04T22:10:00.116Z,100.00
2022-08-04T22:12:30.296Z,100.00
2022-08-04T22:15:00.121Z,100.00
2022-08-04T22:17:35.732Z,100.00
2022-08-04T22:20:27.851Z,100.00
2022-08-04T22:23:06.171Z,100.00
2022-08-04T22:25:55.701Z,100.00
2022-08-04T22:28:28.303Z,100.00
2022-08-04T22:30:58.891Z,100.00
2022-08-04T22:33:54.941Z,100.00
2022-08-04T22:36:24.956Z,100.00
2022-08-04T22:39:01.510Z,100.00
2022-08-04T22:41:48.919Z,100.00
2022-08-04T22:44:25.707Z,100.00
2022-08-04T22:47:02.093Z,100.00
2022-08-04T22:49:33.429Z,100.00
2022-08-04T22:52:12.319Z,100.00
2022-08-04T22:54:48.201Z,100.00
2022-08-04T22:57:18.536Z,100.00
2022-08-04T22:59:55.026Z,100.00
2022-08-04T23:02:24.677Z,100.00
2022-08-04T23:04:54.590Z,100.00
2022-08-04T23:07:38.047Z,100.00
2022-08-04T23:10:16.453Z,100.00
2022-08-04T23:12:54.168Z,100.00
2022-08-04T23:15:23.702Z,100.00
2022-08-04T23:17:53.589Z,100.00
2022-08-04T23:20:32.359Z,100.00
2022-08-04T23:23:14.733Z,100.00
2022-08-04T23:26:07.367Z,100.00
2022-08-04T23:28:36.379Z,100.00
2022-08-04T23:31:05.970Z,100.00
2022-08-04T23:33:49.343Z,100.00
2022-08-04T23:36:29.455Z,100.00
2022-08-04T23:39:06.226Z,100.00
2022-08-04T23:41:51.001Z,100.00
2022-08-04T23:44:27.220Z,100.00
2022-08-04T23:47:04.481Z,100.00
2022-08-04T23:49:43.709Z,100.00
2022-08-04T23:52:27.660Z,100.00
2022-08-04T23:55:02.836Z,100.00
2022-08-04T23:58:05.481Z,100.00
